< < Back
Terminal Aerodrome Forecast


Current Version              Previous Versions:   1  2  3  4  5  6  7  8  9  

Terminal Aerodrome Forecast

813
FTUS42 KMLB 041731
TAFDAB
TAF
KDAB 041731Z 0418/0518 05007KT P6SM VCSH FEW030 FEW100 BKN250
     FM050000 05004KT P6SM VCSH SCT035 BKN070
     FM051400 01005KT P6SM FEW025 SCT150 BKN250=



Latest METAR

961
SAUS80 KWBC 050700 RRA
MTRDAB
METAR KDAB 050653Z 00000KT 10SM FEW150 FEW200 24/23 A2996 RMK AO2 SLP143
T02440228


USA.gov is the U.S. government's official web portal to all federal, state and local government web resources and services.